Time;durP1;ratioP1;P1;durP2;ratioP2;P2;SDS_P1;SDS_P2;PMS_P1;PMS_P2;Temp;Humidity;BMP_temperature;BMP_pressure;BME280_temperature;BME280_humidity;BME280_pressure;Samples;Min_cycle;Max_cycle;Signal;HPM_P1;HPM_P2
2021/05/13 00:01:17;;;;;;;7.60;6.77;;;13.70;68.40;;;;;;5115379;28;20447;-69
2021/05/13 00:03:43;;;;;;;8.27;7.57;;;13.60;68.10;;;;;;5115169;28;20463;-69
2021/05/13 00:06:09;;;;;;;8.33;7.60;;;13.50;67.90;;;;;;5115260;28;20819;-69
2021/05/13 00:08:36;;;;;;;7.80;7.10;;;13.50;67.60;;;;;;5115132;28;20505;-69
2021/05/13 00:11:04;;;;;;;9.07;8.27;;;13.40;68.00;;;;;;5114812;28;20445;-69
2021/05/13 00:13:30;;;;;;;9.50;8.67;;;13.40;68.70;;;;;;5114696;28;20467;-69
2021/05/13 00:15:59;;;;;;;8.03;7.27;;;13.40;69.10;;;;;;5115013;28;20450;-69
2021/05/13 00:18:26;;;;;;;9.27;8.40;;;13.40;68.50;;;;;;5114985;28;20838;-69
2021/05/13 00:20:53;;;;;;;9.93;9.13;;;13.40;68.60;;;;;;5114627;28;20439;-69
2021/05/13 00:23:21;;;;;;;10.27;9.37;;;13.40;68.90;;;;;;5114773;28;20467;-68
2021/05/13 00:25:50;;;;;;;10.60;9.47;;;13.40;69.00;;;;;;5114525;28;20952;-68
2021/05/13 00:28:17;;;;;;;10.40;9.60;;;13.40;69.10;;;;;;5114238;28;20593;-68
2021/05/13 00:30:43;;;;;;;9.10;8.30;;;13.30;68.70;;;;;;5114731;28;20443;-69
2021/05/13 00:33:10;;;;;;;9.33;8.47;;;13.20;68.90;;;;;;5114623;28;20463;-69
2021/05/13 00:35:37;;;;;;;8.63;7.93;;;13.10;68.80;;;;;;5114677;28;20447;-69
2021/05/13 00:38:04;;;;;;;8.77;7.60;;;13.10;68.50;;;;;;5114650;28;20555;-68
2021/05/13 00:40:30;;;;;;;8.53;7.83;;;13.00;68.40;;;;;;5114567;28;20454;-68
2021/05/13 00:42:57;;;;;;;10.23;9.23;;;13.00;68.30;;;;;;5114498;28;20458;-68
2021/05/13 00:45:23;;;;;;;10.30;9.50;;;12.90;68.70;;;;;;5114474;28;20799;-68
2021/05/13 00:48:02;;;;;;;9.60;8.70;;;12.90;69.10;;;;;;5114225;28;21131;-68
2021/05/13 00:50:30;;;;;;;8.97;8.20;;;12.90;69.50;;;;;;5115097;27;20512;-68
2021/05/13 00:52:58;;;;;;;8.70;8.00;;;12.90;69.30;;;;;;5113995;28;20470;-68
2021/05/13 00:55:24;;;;;;;9.87;9.07;;;12.90;69.30;;;;;;5114523;28;20454;-68
2021/05/13 00:57:53;;;;;;;11.53;9.73;;;12.90;69.20;;;;;;5113921;28;21005;-68
2021/05/13 01:03:14;;;;;;;8.97;8.27;;;12.90;69.40;;;;;;5088441;28;20493;-68
2021/05/13 01:05:40;;;;;;;10.63;9.50;;;12.80;69.20;;;;;;5114014;28;20431;-68
2021/05/13 01:08:08;;;;;;;9.13;8.33;;;12.80;69.20;;;;;;5114131;28;20842;-68
2021/05/13 01:10:36;;;;;;;10.20;9.20;;;12.80;69.30;;;;;;5114109;28;20446;-68
2021/05/13 01:13:06;;;;;;;10.90;9.97;;;12.80;69.60;;;;;;5114043;28;20467;-68
2021/05/13 01:15:38;;;;;;;11.73;10.63;;;12.80;69.70;;;;;;5114401;28;20443;-69
2021/05/13 01:18:08;;;;;;;10.07;9.20;;;12.80;69.80;;;;;;5114464;28;20434;-68
2021/05/13 01:20:36;;;;;;;11.60;10.40;;;12.70;69.80;;;;;;5114324;28;20480;-68
2021/05/13 01:23:03;;;;;;;11.37;10.17;;;12.70;69.90;;;;;;5113881;28;20964;-69
2021/05/13 01:25:30;;;;;;;10.83;9.73;;;12.70;70.00;;;;;;5113752;28;20447;-69
2021/05/13 01:27:58;;;;;;;10.00;9.20;;;12.60;70.00;;;;;;5113667;28;20533;-69
2021/05/13 01:30:24;;;;;;;10.40;9.50;;;12.60;70.00;;;;;;5113912;28;20449;-69
2021/05/13 01:32:51;;;;;;;10.00;9.20;;;12.60;70.00;;;;;;5113531;28;20467;-69
2021/05/13 01:35:17;;;;;;;11.07;10.07;;;12.60;70.10;;;;;;5113965;28;20443;-69
2021/05/13 01:37:44;;;;;;;11.07;10.17;;;12.60;70.40;;;;;;5114174;28;20443;-69
2021/05/13 01:40:12;;;;;;;10.17;9.30;;;12.60;70.40;;;;;;5114071;28;20443;-69
2021/05/13 01:42:38;;;;;;;11.40;10.40;;;12.60;70.30;;;;;;5113777;28;20470;-68
2021/05/13 01:45:06;;;;;;;10.93;9.83;;;12.60;70.50;;;;;;5113799;28;20456;-68
2021/05/13 01:47:35;;;;;;;12.37;11.10;;;12.50;71.10;;;;;;5113363;28;20984;-68
2021/05/13 01:50:02;;;;;;;14.17;11.57;;;12.50;71.50;;;;;;5113393;28;20967;-68
2021/05/13 01:52:28;;;;;;;13.50;12.20;;;12.60;72.40;;;;;;5113653;28;20463;-69
2021/05/13 01:54:54;;;;;;;12.27;11.17;;;12.60;72.30;;;;;;5113703;28;20443;-68
2021/05/13 01:57:22;;;;;;;12.27;11.17;;;12.60;72.10;;;;;;5113752;28;20439;-69
2021/05/13 01:59:48;;;;;;;13.53;12.33;;;12.60;72.20;;;;;;5113416;28;20529;-69
2021/05/13 02:02:15;;;;;;;11.80;10.57;;;12.60;72.40;;;;;;5113645;28;20467;-69
2021/05/13 02:04:41;;;;;;;12.27;11.17;;;12.60;72.10;;;;;;5113674;28;20442;-69
2021/05/13 02:07:07;;;;;;;13.87;11.67;;;12.60;71.90;;;;;;5113574;28;20470;-68
2021/05/13 02:09:34;;;;;;;12.67;11.47;;;12.60;71.70;;;;;;5113587;28;20447;-68
2021/05/13 02:12:00;;;;;;;11.67;10.47;;;12.50;71.20;;;;;;5113614;28;20466;-68
2021/05/13 02:14:27;;;;;;;11.93;10.73;;;12.40;70.50;;;;;;5115283;28;20906;-68
2021/05/13 02:16:53;;;;;;;11.27;10.27;;;12.40;70.40;;;;;;5117482;28;20473;-68
2021/05/13 02:19:19;;;;;;;11.60;10.40;;;12.30;70.00;;;;;;5117155;28;20956;-68
2021/05/13 02:21:46;;;;;;;14.03;12.67;;;12.20;70.40;;;;;;5117374;28;20455;-68
2021/05/13 02:24:12;;;;;;;13.97;12.63;;;12.20;71.20;;;;;;5117336;28;20446;-69
2021/05/13 02:26:38;;;;;;;13.00;11.70;;;12.20;72.00;;;;;;5116842;28;20443;-68
2021/05/13 02:29:04;;;;;;;13.60;12.27;;;12.10;71.80;;;;;;5117006;28;20459;-69
2021/05/13 02:31:31;;;;;;;15.67;14.20;;;12.10;71.60;;;;;;5117155;27;20450;-68
2021/05/13 02:33:58;;;;;;;14.80;13.50;;;12.00;72.20;;;;;;5117236;28;20438;-69
2021/05/13 02:36:24;;;;;;;13.57;12.27;;;11.90;72.30;;;;;;5117020;28;20454;-68
2021/05/13 02:38:51;;;;;;;14.17;12.87;;;11.90;72.40;;;;;;5116790;28;20932;-68
2021/05/13 02:41:17;;;;;;;14.60;13.30;;;11.90;72.40;;;;;;5116671;28;20952;-69
2021/05/13 02:43:43;;;;;;;13.30;12.03;;;11.90;72.20;;;;;;5116875;28;20458;-69
2021/05/13 02:46:09;;;;;;;13.30;12.10;;;11.80;72.00;;;;;;5116895;28;20443;-68
2021/05/13 02:48:36;;;;;;;13.70;12.30;;;11.80;72.20;;;;;;5116767;28;20479;-68
2021/05/13 02:51:02;;;;;;;14.03;12.73;;;11.80;72.00;;;;;;5116974;28;20532;-70
2021/05/13 02:53:29;;;;;;;12.60;11.30;;;11.80;72.00;;;;;;5116742;28;20841;-68
2021/05/13 02:55:55;;;;;;;14.63;13.03;;;11.80;72.10;;;;;;5116772;28;20446;-68
2021/05/13 02:58:21;;;;;;;13.70;12.30;;;11.80;71.90;;;;;;5116691;28;20801;-68
2021/05/13 03:00:54;;;;;;;14.70;12.57;;;11.80;72.00;;;;;;5116685;28;20450;-68
2021/05/13 03:03:20;;;;;;;12.37;11.17;;;11.80;71.90;;;;;;5116487;28;20470;-68
2021/05/13 03:05:49;;;;;;;13.47;12.00;;;11.80;71.90;;;;;;5116599;28;20479;-69
2021/05/13 03:08:15;;;;;;;13.43;11.43;;;11.80;72.00;;;;;;5116166;28;20849;-68
2021/05/13 03:10:45;;;;;;;14.37;12.83;;;11.80;72.10;;;;;;5116134;28;20423;-69
2021/05/13 03:13:15;;;;;;;14.07;12.70;;;11.80;72.40;;;;;;5116281;28;20478;-71
2021/05/13 03:15:41;;;;;;;14.43;12.30;;;11.80;72.60;;;;;;5116340;28;20434;-69
2021/05/13 03:18:08;;;;;;;14.53;12.90;;;11.80;72.50;;;;;;5116196;28;20431;-69
2021/05/13 03:20:37;;;;;;;15.53;14.07;;;11.80;72.40;;;;;;5116279;28;20534;-69
2021/05/13 03:23:07;;;;;;;13.93;12.63;;;11.80;72.40;;;;;;5116123;27;20462;-68
2021/05/13 03:25:35;;;;;;;13.83;12.43;;;11.80;72.50;;;;;;5116093;28;20511;-68
2021/05/13 03:28:09;;;;;;;14.67;13.33;;;11.80;72.60;;;;;;5115612;28;20995;-68
2021/05/13 03:30:40;;;;;;;15.57;14.10;;;11.80;73.30;;;;;;5116228;28;20439;-68
2021/05/13 03:33:07;;;;;;;12.73;11.53;;;11.80;72.70;;;;;;5116035;28;20470;-68
2021/05/13 03:35:34;;;;;;;13.80;12.47;;;11.70;72.50;;;;;;5116034;28;20439;-68
2021/05/13 03:38:01;;;;;;;14.10;12.70;;;11.70;72.40;;;;;;5116098;28;20800;-68
2021/05/13 03:40:30;;;;;;;14.33;12.93;;;11.70;72.50;;;;;;5115965;28;20520;-68
2021/05/13 03:42:56;;;;;;;14.30;13.00;;;11.70;72.60;;;;;;5115903;28;20504;-68
2021/05/13 03:45:23;;;;;;;14.73;13.37;;;11.70;72.70;;;;;;5115533;28;20955;-68
2021/05/13 03:47:49;;;;;;;16.27;14.67;;;11.70;72.80;;;;;;5115747;28;20481;-68
2021/05/13 03:50:16;;;;;;;13.60;12.23;;;11.60;72.60;;;;;;5115812;28;20442;-68
2021/05/13 03:52:42;;;;;;;13.27;11.97;;;11.60;72.60;;;;;;5115569;28;20475;-68
2021/05/13 03:55:10;;;;;;;15.33;12.17;;;11.60;72.50;;;;;;5115740;28;20492;-68
2021/05/13 03:57:37;;;;;;;12.67;11.37;;;11.60;72.40;;;;;;5115293;28;20451;-69
2021/05/13 04:00:07;;;;;;;14.50;12.07;;;11.60;72.60;;;;;;5115690;28;20455;-69
2021/05/13 04:02:34;;;;;;;14.03;12.70;;;11.50;72.40;;;;;;5115669;28;20451;-68
2021/05/13 04:05:01;;;;;;;12.30;11.20;;;11.50;72.40;;;;;;5115467;28;20456;-68
2021/05/13 04:07:29;;;;;;;11.87;10.67;;;11.40;72.20;;;;;;5115419;28;20465;-68
2021/05/13 04:09:56;;;;;;;12.23;11.00;;;11.40;72.20;;;;;;5115319;28;20450;-68
2021/05/13 04:12:22;;;;;;;12.27;11.07;;;11.40;72.30;;;;;;5115402;28;20463;-69
2021/05/13 04:14:50;;;;;;;11.57;10.57;;;11.40;72.40;;;;;;5114952;28;20956;-69
2021/05/13 04:17:18;;;;;;;12.33;11.23;;;11.40;72.40;;;;;;5115253;28;20439;-69
2021/05/13 04:19:44;;;;;;;13.20;12.00;;;11.40;72.40;;;;;;5115146;28;20815;-69
2021/05/13 04:22:11;;;;;;;14.50;12.00;;;11.40;72.70;;;;;;5114686;28;21006;-69
2021/05/13 04:24:38;;;;;;;13.37;11.70;;;11.40;72.80;;;;;;5115008;28;20453;-69
2021/05/13 04:27:04;;;;;;;13.23;12.03;;;11.40;73.10;;;;;;5114866;28;20451;-69
2021/05/13 04:29:31;;;;;;;12.60;11.43;;;11.40;73.30;;;;;;5114972;28;20435;-69
2021/05/13 04:31:58;;;;;;;12.63;11.40;;;11.40;73.40;;;;;;5115010;28;20467;-68
2021/05/13 04:34:24;;;;;;;11.43;10.33;;;11.30;73.40;;;;;;5114976;28;20447;-69
2021/05/13 04:36:50;;;;;;;11.33;10.33;;;11.30;73.30;;;;;;5114594;28;20866;-69
2021/05/13 04:39:17;;;;;;;12.37;11.27;;;11.40;73.50;;;;;;5114855;28;20433;-68
2021/05/13 04:41:43;;;;;;;12.07;10.73;;;11.40;73.50;;;;;;5114646;27;20495;-69
2021/05/13 04:44:09;;;;;;;11.90;10.80;;;11.40;73.60;;;;;;5114838;28;20427;-69
2021/05/13 04:46:37;;;;;;;12.03;10.53;;;11.40;73.80;;;;;;5114785;28;20447;-69
2021/05/13 04:49:17;;;;;;;12.60;11.40;;;11.40;73.80;;;;;;5114684;28;20619;-69
2021/05/13 04:51:46;;;;;;;12.40;11.20;;;11.40;73.90;;;;;;5114316;28;20430;-68
2021/05/13 04:54:14;;;;;;;12.27;11.20;;;11.40;74.00;;;;;;5114242;28;20934;-69
2021/05/13 04:56:41;;;;;;;13.43;12.13;;;11.40;74.10;;;;;;5114502;28;20458;-69
2021/05/13 04:59:07;;;;;;;14.47;13.07;;;11.40;74.50;;;;;;5114588;28;20446;-69
2021/05/13 05:01:33;;;;;;;12.40;11.30;;;11.30;74.90;;;;;;5114065;28;20807;-68
2021/05/13 05:04:00;;;;;;;12.33;10.80;;;11.30;75.60;;;;;;5114282;28;20445;-68
2021/05/13 05:06:27;;;;;;;13.03;11.73;;;11.30;76.10;;;;;;5113871;28;20475;-68
2021/05/13 05:08:55;;;;;;;12.73;11.53;;;11.30;76.50;;;;;;5114173;28;20532;-68
2021/05/13 05:11:21;;;;;;;13.70;11.60;;;11.40;76.90;;;;;;5114160;28;20475;-68
2021/05/13 05:13:48;;;;;;;13.27;11.87;;;11.40;77.40;;;;;;5114028;28;20515;-68
2021/05/13 05:16:14;;;;;;;20.63;18.73;;;11.50;77.90;;;;;;5113773;28;20877;-68
2021/05/13 05:18:40;;;;;;;22.97;20.70;;;11.60;79.20;;;;;;5114072;28;20439;-68
2021/05/13 05:21:07;;;;;;;25.00;22.60;;;11.80;80.90;;;;;;5114016;28;20443;-68
2021/05/13 05:23:34;;;;;;;24.30;21.90;;;11.90;82.40;;;;;;5113599;28;21002;-68
2021/05/13 05:26:01;;;;;;;23.80;20.00;;;12.00;83.20;;;;;;5113975;28;20446;-68
2021/05/13 05:28:27;;;;;;;22.53;20.23;;;12.10;84.00;;;;;;5113516;28;20561;-68
2021/05/13 05:30:54;;;;;;;25.57;22.87;;;12.20;84.50;;;;;;5113910;28;20442;-68
2021/05/13 05:33:22;;;;;;;26.47;23.73;;;12.20;84.40;;;;;;5113793;28;20477;-68
2021/05/13 05:35:48;;;;;;;24.17;21.63;;;12.30;84.30;;;;;;5113778;28;20482;-68
2021/05/13 05:38:14;;;;;;;27.47;22.93;;;12.40;84.20;;;;;;5113497;28;20439;-68
2021/05/13 05:40:42;;;;;;;24.67;22.10;;;12.50;84.60;;;;;;5113838;28;20445;-68
2021/05/13 05:43:08;;;;;;;26.40;23.67;;;12.60;85.20;;;;;;5113432;28;21002;-68
2021/05/13 05:45:34;;;;;;;26.37;23.70;;;12.70;85.10;;;;;;5113769;28;20474;-68
2021/05/13 05:48:00;;;;;;;23.87;21.47;;;12.70;85.10;;;;;;5113705;28;20482;-68
2021/05/13 05:50:28;;;;;;;27.17;22.50;;;12.80;85.10;;;;;;5117220;28;20928;-68
2021/05/13 05:52:55;;;;;;;29.03;24.10;;;12.90;85.40;;;;;;5117820;28;20462;-68
2021/05/13 05:55:21;;;;;;;25.43;22.83;;;12.90;85.10;;;;;;5117782;28;20439;-68
2021/05/13 05:57:48;;;;;;;25.63;23.17;;;13.00;85.20;;;;;;5117479;28;20951;-68
2021/05/13 06:00:16;;;;;;;26.40;23.63;;;13.10;85.30;;;;;;5117787;28;20792;-68
2021/05/13 06:02:42;;;;;;;26.37;23.77;;;13.10;85.60;;;;;;5117615;28;20473;-68
2021/05/13 06:05:09;;;;;;;25.03;22.33;;;13.20;85.80;;;;;;5117669;28;20446;-68
2021/05/13 06:07:35;;;;;;;24.60;22.03;;;13.20;85.90;;;;;;5117387;27;20470;-68
2021/05/13 06:10:04;;;;;;;24.30;21.30;;;13.30;85.80;;;;;;5117551;28;20447;-68
2021/05/13 06:12:30;;;;;;;25.03;22.37;;;13.40;85.30;;;;;;5117122;28;20463;-68
2021/05/13 06:14:57;;;;;;;27.37;23.50;;;13.50;85.20;;;;;;5117479;27;20447;-68
2021/05/13 06:17:23;;;;;;;25.60;22.97;;;13.50;85.10;;;;;;5117405;28;20442;-68
2021/05/13 06:19:50;;;;;;;24.00;21.50;;;13.60;85.00;;;;;;5117656;28;20431;-68
2021/05/13 06:22:16;;;;;;;28.60;23.33;;;13.70;85.50;;;;;;5117291;28;20463;-68
2021/05/13 06:24:43;;;;;;;27.30;23.10;;;13.70;85.40;;;;;;5117306;28;20470;-68
2021/05/13 06:27:09;;;;;;;25.57;21.83;;;13.80;85.40;;;;;;5117044;28;20467;-68
2021/05/13 06:29:35;;;;;;;23.17;20.67;;;13.90;85.40;;;;;;5116903;28;21000;-68
2021/05/13 06:32:03;;;;;;;20.67;18.60;;;14.00;84.80;;;;;;5117082;28;20451;-68
2021/05/13 06:34:29;;;;;;;22.37;20.00;;;14.20;83.80;;;;;;5117189;28;20472;-68
2021/05/13 06:36:55;;;;;;;18.17;16.37;;;14.30;82.50;;;;;;5116830;28;20812;-68
2021/05/13 06:39:22;;;;;;;18.97;16.20;;;14.40;81.90;;;;;;5116973;28;20430;-68
2021/05/13 06:41:48;;;;;;;19.23;17.53;;;14.60;81.20;;;;;;5116956;28;20462;-68
2021/05/13 06:44:14;;;;;;;18.13;16.43;;;14.70;80.40;;;;;;5116750;28;20443;-68
2021/05/13 06:46:40;;;;;;;21.80;19.50;;;14.90;80.30;;;;;;5116827;28;20446;-68
2021/05/13 06:49:07;;;;;;;21.30;19.10;;;15.00;79.90;;;;;;5116540;28;20455;-68
2021/05/13 06:51:34;;;;;;;18.90;17.07;;;15.10;79.70;;;;;;5116684;28;20440;-68
2021/05/13 06:54:00;;;;;;;18.47;16.60;;;15.20;79.50;;;;;;5116713;28;20511;-68
2021/05/13 06:56:27;;;;;;;16.77;15.10;;;15.30;78.40;;;;;;5116706;28;20789;-68
2021/05/13 06:58:54;;;;;;;14.77;13.40;;;15.30;77.00;;;;;;5116285;28;20447;-68
2021/05/13 07:01:22;;;;;;;17.43;15.47;;;15.50;76.40;;;;;;5116055;28;20450;-68
2021/05/13 07:03:48;;;;;;;18.13;16.03;;;15.60;76.50;;;;;;5116475;28;20507;-68
2021/05/13 07:06:15;;;;;;;14.57;13.10;;;15.70;76.20;;;;;;5116251;28;20458;-69
2021/05/13 07:08:42;;;;;;;16.77;15.07;;;15.90;75.60;;;;;;5116550;28;20478;-69
2021/05/13 07:11:08;;;;;;;14.50;12.77;;;16.20;74.60;;;;;;5116531;28;20478;-69
2021/05/13 07:13:36;;;;;;;12.53;11.10;;;16.40;74.50;;;;;;5116343;28;20463;-69
2021/05/13 07:16:02;;;;;;;14.10;12.30;;;16.60;73.40;;;;;;5116104;28;20944;-69
2021/05/13 07:18:29;;;;;;;16.40;14.83;;;16.90;71.70;;;;;;5116243;28;20443;-69
2021/05/13 07:20:55;;;;;;;14.20;12.90;;;17.10;71.00;;;;;;5116321;28;20506;-69
2021/05/13 07:23:22;;;;;;;19.00;15.90;;;17.30;70.90;;;;;;5116100;28;20469;-69
2021/05/13 07:25:49;;;;;;;16.03;14.60;;;17.60;70.80;;;;;;5116103;28;20495;-69
2021/05/13 07:28:15;;;;;;;17.60;16.00;;;17.70;70.10;;;;;;5115709;28;20479;-69
2021/05/13 07:30:42;;;;;;;15.33;13.83;;;17.90;70.00;;;;;;5116012;28;20449;-69
2021/05/13 07:33:09;;;;;;;15.83;14.27;;;18.10;69.90;;;;;;5115891;28;20545;-69
2021/05/13 07:35:36;;;;;;;16.43;14.73;;;18.40;68.10;;;;;;5115924;28;20447;-69
2021/05/13 07:38:03;;;;;;;18.17;16.37;;;18.60;67.60;;;;;;5115552;28;20530;-69
2021/05/13 07:40:30;;;;;;;17.60;15.97;;;18.90;66.60;;;;;;5115802;28;20443;-69
2021/05/13 07:42:57;;;;;;;17.17;15.43;;;19.10;64.20;;;;;;5115618;28;20519;-69
2021/05/13 07:45:24;;;;;;;14.77;13.17;;;19.20;63.60;;;;;;5115637;28;20863;-69
2021/05/13 07:47:50;;;;;;;18.27;16.47;;;19.40;63.40;;;;;;5115508;28;20877;-69
2021/05/13 07:50:18;;;;;;;13.67;12.47;;;19.60;61.90;;;;;;5115271;28;20967;-69
2021/05/13 07:52:45;;;;;;;11.33;10.40;;;19.70;61.80;;;;;;5115963;28;20795;-69
2021/05/13 07:55:12;;;;;;;14.23;12.73;;;19.90;61.00;;;;;;5115509;28;20447;-69
2021/05/13 07:57:40;;;;;;;10.83;9.70;;;20.10;58.20;;;;;;5115423;28;20443;-69
2021/05/13 08:00:07;;;;;;;9.30;8.30;;;20.20;57.80;;;;;;5115130;28;20517;-69
2021/05/13 08:02:34;;;;;;;9.23;8.33;;;20.50;57.50;;;;;;5115269;28;20467;-69
2021/05/13 08:05:00;;;;;;;6.93;6.30;;;20.70;56.90;;;;;;5115281;28;20861;-69
2021/05/13 08:07:27;;;;;;;8.37;7.67;;;21.00;56.20;;;;;;5114880;28;20435;-69
2021/05/13 08:09:53;;;;;;;7.87;7.10;;;21.20;55.40;;;;;;5114867;28;20453;-69
2021/05/13 08:12:19;;;;;;;8.43;7.63;;;21.40;54.40;;;;;;5113929;28;20467;-69
2021/05/13 08:14:46;;;;;;;7.80;7.07;;;21.60;53.10;;;;;;5115138;28;20428;-69
2021/05/13 08:17:13;;;;;;;6.53;5.93;;;21.80;52.00;;;;;;5115101;28;20439;-69
2021/05/13 08:19:40;;;;;;;5.30;4.80;;;21.90;52.50;;;;;;5114979;28;20443;-69
2021/05/13 08:22:06;;;;;;;5.80;5.30;;;22.10;52.80;;;;;;5114587;28;20972;-69
2021/05/13 08:24:33;;;;;;;5.47;4.97;;;22.40;52.20;;;;;;5114642;28;20948;-69
2021/05/13 08:27:01;;;;;;;6.37;5.77;;;22.60;51.70;;;;;;5114690;28;20455;-69
2021/05/13 08:29:28;;;;;;;6.87;6.07;;;22.80;51.50;;;;;;5114697;28;20566;-69
2021/05/13 08:31:55;;;;;;;5.10;4.70;;;23.00;51.10;;;;;;5114703;28;20463;-70
2021/05/13 08:34:22;;;;;;;5.40;4.93;;;23.30;50.50;;;;;;5114798;28;20834;-69
2021/05/13 08:36:48;;;;;;;5.20;4.77;;;23.50;50.10;;;;;;5114769;28;20438;-70
2021/05/13 08:39:14;;;;;;;5.43;5.03;;;23.70;49.90;;;;;;5114735;28;20423;-69
2021/05/13 08:41:41;;;;;;;6.17;5.67;;;23.90;49.30;;;;;;5114501;28;20439;-69
2021/05/13 08:44:08;;;;;;;5.50;4.80;;;24.10;48.80;;;;;;5114235;28;20933;-69
2021/05/13 08:46:36;;;;;;;4.37;4.00;;;24.30;47.80;;;;;;5115391;28;20427;-69
2021/05/13 08:49:05;;;;;;;6.70;6.10;;;24.50;47.00;;;;;;5114431;28;20532;-70
2021/05/13 08:51:31;;;;;;;5.33;4.90;;;24.60;45.80;;;;;;5114347;28;20450;-70
2021/05/13 08:53:58;;;;;;;5.40;4.10;;;24.70;45.90;;;;;;5114530;28;20442;-69
2021/05/13 08:56:27;;;;;;;4.90;4.50;;;24.90;45.90;;;;;;5114403;28;20541;-70
2021/05/13 08:58:53;;;;;;;3.60;3.30;;;25.10;45.60;;;;;;5114082;28;20901;-70
2021/05/13 09:01:22;;;;;;;4.47;4.10;;;25.30;45.30;;;;;;5114335;28;20559;-70
2021/05/13 09:03:49;;;;;;;7.87;7.17;;;25.60;45.30;;;;;;5114257;28;20467;-70
2021/05/13 09:06:27;;;;;;;5.20;4.70;;;25.80;44.50;;;;;;5114261;28;20792;-70
2021/05/13 09:08:53;;;;;;;5.10;4.63;;;25.90;43.00;;;;;;5113848;28;20995;-70
2021/05/13 09:11:19;;;;;;;5.60;5.20;;;26.00;42.60;;;;;;5114185;28;20443;-70
2021/05/13 09:13:58;;;;;;;5.93;5.10;;;26.10;43.10;;;;;;5113737;28;20457;-70
2021/05/13 09:16:26;;;;;;;4.73;3.40;;;26.30;43.10;;;;;;5114119;28;20434;-70
2021/05/13 09:18:53;;;;;;;4.10;3.60;;;26.50;42.50;;;;;;5114112;28;20427;-70
2021/05/13 09:21:20;;;;;;;5.27;4.30;;;26.60;40.90;;;;;;5113797;28;20938;-70
2021/05/13 09:23:46;;;;;;;5.70;4.73;;;26.90;41.10;;;;;;5113789;28;20462;-70
2021/05/13 09:26:16;;;;;;;5.90;4.67;;;27.00;39.60;;;;;;5113968;28;20423;-70
2021/05/13 09:28:43;;;;;;;7.10;4.10;;;26.90;37.20;;;;;;5113734;28;20486;-70
2021/05/13 09:31:32;;;;;;;6.00;4.90;;;26.90;38.50;;;;;;5113894;28;20465;-70
2021/05/13 09:34:04;;;;;;;5.17;4.13;;;27.10;39.10;;;;;;5113696;28;20905;-70
2021/05/13 09:36:31;;;;;;;5.60;5.10;;;27.20;39.00;;;;;;5113939;28;20415;-70
2021/05/13 09:38:57;;;;;;;4.87;3.90;;;27.50;39.70;;;;;;5113899;28;20419;-70
2021/05/13 09:41:34;;;;;;;4.87;4.40;;;27.60;37.90;;;;;;5113856;28;20451;-70
2021/05/13 09:44:01;;;;;;;3.80;3.50;;;27.80;38.50;;;;;;5113847;28;20549;-70
2021/05/13 09:46:33;;;;;;;4.73;2.70;;;28.00;35.00;;;;;;5113790;28;20435;-70
2021/05/13 09:48:59;;;;;;;3.27;2.60;;;28.20;33.50;;;;;;5113437;28;20463;-70
2021/05/13 09:51:26;;;;;;;4.27;2.47;;;28.40;33.50;;;;;;5113804;28;20442;-70
2021/05/13 09:54:07;;;;;;;5.13;4.70;;;28.70;33.80;;;;;;5113646;28;20471;-70
2021/05/13 09:56:33;;;;;;;3.70;3.40;;;29.00;31.50;;;;;;5114244;28;20488;-70
2021/05/13 09:59:20;;;;;;;5.50;3.10;;;29.10;31.60;;;;;;5113594;28;20447;-70
2021/05/13 10:01:46;;;;;;;3.40;2.97;;;29.20;30.70;;;;;;5113582;28;20474;-70
2021/05/13 10:04:13;;;;;;;4.23;3.83;;;29.50;31.00;;;;;;5113656;28;20427;-70
2021/05/13 10:06:39;;;;;;;4.20;2.83;;;29.80;32.70;;;;;;5113609;28;20449;-70
2021/05/13 10:09:06;;;;;;;4.63;3.60;;;30.10;33.20;;;;;;5113457;28;20470;-70
2021/05/13 10:11:33;;;;;;;3.10;2.90;;;30.50;32.70;;;;;;5114043;28;20444;-70
2021/05/13 10:13:59;;;;;;;2.77;2.57;;;30.90;31.90;;;;;;5113608;28;20434;-70
2021/05/13 10:16:28;;;;;;;3.50;3.07;;;31.40;31.00;;;;;;5113546;28;20477;-70
2021/05/13 10:18:58;;;;;;;4.73;2.80;;;31.80;27.40;;;;;;5113170;28;20810;-70
2021/05/13 10:21:27;;;;;;;5.60;2.43;;;32.00;26.90;;;;;;5113469;28;20445;-70
2021/05/13 10:23:56;;;;;;;3.37;2.60;;;32.20;24.70;;;;;;5113326;28;20462;-70
2021/05/13 10:26:42;;;;;;;3.57;2.07;;;32.50;25.60;;;;;;5112974;28;20442;-70
2021/05/13 10:29:34;;;;;;;5.30;3.23;;;33.00;26.10;;;;;;5113380;28;20469;-70
2021/05/13 10:32:08;;;;;;;2.57;2.33;;;33.50;24.40;;;;;;5113686;28;20661;-70
2021/05/13 10:34:52;;;;;;;3.27;3.03;;;33.80;24.80;;;;;;5113924;28;20469;-70
2021/05/13 10:37:25;;;;;;;4.73;3.10;;;34.10;24.10;;;;;;5117177;28;20431;-70
2021/05/13 10:40:20;;;;;;;4.57;2.60;;;34.20;22.60;;;;;;5117108;28;20419;-70
2021/05/13 10:42:57;;;;;;;4.67;2.90;;;34.30;23.70;;;;;;5117235;28;20550;-70
2021/05/13 10:45:35;;;;;;;2.90;2.50;;;34.60;22.40;;;;;;5116666;28;20915;-70
2021/05/13 10:48:22;;;;;;;3.70;2.43;;;34.80;22.50;;;;;;5116468;28;21037;-70
2021/05/13 10:50:54;;;;;;;3.87;2.10;;;35.00;21.00;;;;;;5116503;28;20931;-70
2021/05/13 10:53:39;;;;;;;6.07;2.57;;;35.00;22.00;;;;;;5116711;28;20462;-70
2021/05/13 10:56:33;;;;;;;3.90;2.00;;;35.50;20.30;;;;;;5116469;28;20912;-70
2021/05/13 10:59:13;;;;;;;3.90;2.43;;;36.00;21.30;;;;;;5114670;28;20495;-70
2021/05/13 11:01:43;;;;;;;2.97;2.17;;;36.60;20.90;;;;;;5116260;28;20789;-70
2021/05/13 11:04:40;;;;;;;4.30;1.77;;;37.10;20.10;;;;;;5117155;28;20450;-70
2021/05/13 11:07:26;;;;;;;4.60;1.70;;;37.50;18.90;;;;;;5116297;28;20418;-70
2021/05/13 11:09:54;;;;;;;4.53;2.40;;;37.70;17.50;;;;;;5116385;28;20466;-70
2021/05/13 11:12:23;;;;;;;2.80;1.70;;;37.60;17.90;;;;;;5116468;28;20234;-70
2021/05/13 11:15:10;;;;;;;4.93;2.00;;;37.10;18.10;;;;;;5116128;28;20206;-70
2021/05/13 11:18:13;;;;;;;2.50;1.60;;;37.10;18.20;;;;;;5116421;28;20189;-70
2021/05/13 11:20:53;;;;;;;2.43;1.50;;;37.40;18.80;;;;;;5116336;28;20431;-70
2021/05/13 11:23:28;;;;;;;3.10;1.83;;;37.80;18.60;;;;;;5116187;28;20465;-70
2021/05/13 11:25:56;;;;;;;5.50;1.87;;;38.40;19.40;;;;;;5116297;28;20607;-70
2021/05/13 11:28:37;;;;;;;3.28;1.50;;;39.00;19.20;;;;;;5116169;28;20231;-70
2021/05/13 11:31:19;;;;;;;5.50;2.08;;;39.60;17.90;;;;;;5115817;28;20200;-70
2021/05/13 11:33:48;;;;;;;2.63;1.45;;;39.90;17.30;;;;;;5115683;28;20636;-70
2021/05/13 11:36:16;;;;;;;1.67;1.20;;;40.00;17.50;;;;;;5115957;28;20200;-70
2021/05/13 11:38:45;;;;;;;3.05;1.15;;;40.30;18.00;;;;;;5115603;28;20523;-70
2021/05/13 11:41:11;;;;;;;4.60;1.50;;;40.60;17.00;;;;;;5115861;28;20208;-70
2021/05/13 11:43:39;;;;;;;5.63;1.80;;;40.90;16.40;;;;;;5115723;28;20304;-70
2021/05/13 11:46:07;;;;;;;2.65;1.38;;;41.00;15.70;;;;;;5115737;28;20196;-70
2021/05/13 11:48:36;;;;;;;2.95;1.35;;;40.70;16.40;;;;;;5115631;28;20216;-70
2021/05/13 11:51:05;;;;;;;2.88;1.40;;;40.40;16.10;;;;;;5115746;28;20211;-70
2021/05/13 11:53:32;;;;;;;3.85;1.20;;;39.60;15.10;;;;;;5115252;28;20782;-71
2021/05/13 11:56:00;;;;;;;4.75;1.80;;;38.90;16.60;;;;;;5115679;28;20200;-71
2021/05/13 11:58:42;;;;;;;4.10;1.57;;;38.10;17.10;;;;;;5115602;28;20197;-71
2021/05/13 12:01:23;;;;;;;3.77;1.43;;;36.70;17.00;;;;;;5115518;28;20275;-71
2021/05/13 12:03:58;;;;;;;1.40;1.00;;;35.10;18.60;;;;;;5115071;28;20836;-70
2021/05/13 12:06:25;;;;;;;3.53;1.50;;;33.80;20.20;;;;;;5115466;28;20429;-70
2021/05/13 12:08:51;;;;;;;5.93;1.47;;;32.80;21.40;;;;;;5115232;28;20867;-70
2021/05/13 12:11:20;;;;;;;4.53;0.93;;;32.20;22.40;;;;;;5115232;28;20449;-70
2021/05/13 12:13:47;;;;;;;2.37;1.27;;;32.40;22.30;;;;;;5115117;28;20467;-70
2021/05/13 12:16:14;;;;;;;2.83;1.13;;;32.40;22.10;;;;;;5115151;28;20446;-70
2021/05/13 12:18:42;;;;;;;1.97;1.00;;;32.10;22.80;;;;;;5115091;28;20435;-70
2021/05/13 12:21:10;;;;;;;2.33;1.30;;;31.70;21.80;;;;;;5115049;28;20442;-70
2021/05/13 12:23:39;;;;;;;2.97;1.57;;;31.10;22.50;;;;;;5114932;28;20466;-70
2021/05/13 12:26:07;;;;;;;2.30;1.30;;;30.70;23.60;;;;;;5114955;28;20451;-70
2021/05/13 12:28:33;;;;;;;4.03;1.37;;;30.50;24.50;;;;;;5114369;28;20660;-70
2021/05/13 12:31:00;;;;;;;2.00;1.27;;;31.50;25.70;;;;;;5114861;28;20450;-70
2021/05/13 12:33:30;;;;;;;3.80;2.20;;;32.70;25.60;;;;;;5114747;28;20462;-70
2021/05/13 12:35:57;;;;;;;2.37;1.47;;;33.20;24.20;;;;;;5114475;28;20482;-70
2021/05/13 12:38:25;;;;;;;3.90;1.40;;;33.30;24.20;;;;;;5114716;28;20434;-71
2021/05/13 12:41:06;;;;;;;3.57;1.40;;;33.10;24.40;;;;;;5114305;28;20828;-71
2021/05/13 12:43:33;;;;;;;3.90;1.77;;;32.80;24.30;;;;;;5114590;28;20466;-71
2021/05/13 12:45:59;;;;;;;1.83;1.40;;;32.40;24.70;;;;;;5114608;28;20469;-71